Time;durP1;ratioP1;P1;durP2;ratioP2;P2;SDS_P1;SDS_P2;PMS_P1;PMS_P2;Temp;Humidity;BMP_temperature;BMP_pressure;BME280_temperature;BME280_humidity;BME280_pressure;Samples;Min_cycle;Max_cycle;Signal;HPM_P1;HPM_P2
2021/04/29 00:00:02;;;;;;;7.80;7.00;;;9.40;99.90;;;;;;455730;260;27938;-64
2021/04/29 00:02:03;;;;;;;7.37;6.60;;;9.40;99.90;;;;;;465686;252;27987;-64
2021/04/29 00:04:05;;;;;;;7.30;6.10;;;9.40;99.90;;;;;;458712;258;27749;-66
2021/04/29 00:06:06;;;;;;;8.77;6.00;;;9.40;99.90;;;;;;455723;260;27840;-64
2021/04/29 00:08:07;;;;;;;9.00;6.63;;;9.40;99.90;;;;;;461739;256;28105;-65
2021/04/29 00:10:08;;;;;;;6.70;6.10;;;9.50;99.90;;;;;;455717;260;27994;-64
2021/04/29 00:12:10;;;;;;;7.57;6.77;;;9.40;99.90;;;;;;465701;255;27894;-65
2021/04/29 00:14:11;;;;;;;9.17;7.30;;;9.40;99.90;;;;;;458705;258;28333;-65
2021/04/29 00:16:12;;;;;;;7.30;6.60;;;9.40;99.90;;;;;;455726;260;28276;-64
2021/04/29 00:18:13;;;;;;;6.20;5.60;;;9.40;99.90;;;;;;465674;255;28417;-65
2021/04/29 00:20:15;;;;;;;6.00;5.40;;;9.40;99.90;;;;;;458704;258;28351;-64
2021/04/29 00:22:16;;;;;;;7.10;6.10;;;9.40;99.90;;;;;;455717;260;28596;-65
2021/04/29 00:24:17;;;;;;;7.90;6.60;;;9.40;99.90;;;;;;461766;256;28358;-64
2021/04/29 00:26:18;;;;;;;9.30;7.60;;;9.40;99.90;;;;;;455720;260;28523;-64
2021/04/29 00:28:20;;;;;;;10.77;8.80;;;9.40;99.90;;;;;;465697;255;28115;-64
2021/04/29 00:30:21;;;;;;;9.77;7.30;;;9.40;99.90;;;;;;458706;258;27963;-64
2021/04/29 00:32:22;;;;;;;7.33;6.43;;;9.30;99.90;;;;;;455733;260;27858;-64
2021/04/29 00:34:23;;;;;;;8.30;6.93;;;9.30;99.90;;;;;;465686;252;27940;-64
2021/04/29 00:36:25;;;;;;;9.13;7.33;;;9.30;99.90;;;;;;458687;259;27796;-65
2021/04/29 00:38:26;;;;;;;9.30;7.33;;;9.30;99.90;;;;;;455697;260;28123;-66
2021/04/29 00:40:27;;;;;;;7.97;6.57;;;9.30;99.90;;;;;;465701;255;28040;-64
2021/04/29 00:42:28;;;;;;;8.63;7.73;;;9.30;99.90;;;;;;458711;258;27987;-65
2021/04/29 00:44:30;;;;;;;8.43;6.40;;;9.20;99.90;;;;;;455721;260;27925;-64
2021/04/29 00:46:31;;;;;;;9.40;7.00;;;9.30;99.90;;;;;;465688;255;28041;-65
2021/04/29 00:48:32;;;;;;;7.30;6.30;;;9.30;99.90;;;;;;458701;258;27779;-66
2021/04/29 00:50:33;;;;;;;7.97;7.17;;;9.30;99.90;;;;;;455720;260;28111;-64
2021/04/29 00:52:35;;;;;;;6.97;6.27;;;9.30;99.90;;;;;;465693;255;27953;-66
2021/04/29 00:54:36;;;;;;;7.50;6.50;;;9.30;99.90;;;;;;458689;258;28572;-64
2021/04/29 00:56:37;;;;;;;8.70;7.57;;;9.30;99.90;;;;;;455716;260;28633;-64
2021/04/29 00:58:38;;;;;;;10.67;8.10;;;9.40;99.90;;;;;;461740;256;28440;-66
2021/04/29 01:00:40;;;;;;;8.63;6.83;;;9.30;99.90;;;;;;455710;260;28698;-64
2021/04/29 01:02:41;;;;;;;12.30;7.20;;;9.30;99.90;;;;;;465707;255;28357;-65
2021/04/29 01:04:44;;;;;;;10.23;7.70;;;9.30;99.90;;;;;;458700;258;27977;-64
2021/04/29 01:06:44;;;;;;;10.40;7.40;;;9.30;99.90;;;;;;455723;260;28055;-64
2021/04/29 01:08:45;;;;;;;10.83;9.30;;;9.30;99.90;;;;;;461743;256;27929;-66
2021/04/29 01:10:46;;;;;;;9.97;8.10;;;9.30;99.90;;;;;;455716;260;28093;-64
2021/04/29 01:12:47;;;;;;;9.90;7.60;;;9.30;99.90;;;;;;465692;252;27932;-64
2021/04/29 01:14:48;;;;;;;10.00;8.13;;;9.30;99.90;;;;;;458692;259;28054;-64
2021/04/29 01:16:50;;;;;;;11.00;9.00;;;9.30;99.90;;;;;;455716;256;27983;-64
2021/04/29 01:18:51;;;;;;;8.90;8.00;;;9.20;99.90;;;;;;465694;255;27965;-66
2021/04/29 01:20:52;;;;;;;11.87;8.60;;;9.20;99.90;;;;;;458707;258;28109;-64
2021/04/29 01:22:53;;;;;;;7.83;6.53;;;9.30;99.90;;;;;;455761;260;28469;-65
2021/04/29 01:24:55;;;;;;;9.10;7.40;;;9.30;99.90;;;;;;461776;256;28609;-64
2021/04/29 01:26:57;;;;;;;8.03;6.60;;;9.30;99.90;;;;;;455744;260;28459;-64
2021/04/29 01:28:57;;;;;;;9.60;8.60;;;9.30;99.90;;;;;;465703;255;28484;-64
2021/04/29 01:30:58;;;;;;;10.03;8.17;;;9.30;99.90;;;;;;458723;255;28425;-64
2021/04/29 01:33:00;;;;;;;9.43;7.60;;;9.30;99.90;;;;;;455738;260;27933;-64
2021/04/29 01:35:01;;;;;;;9.23;7.90;;;9.30;99.90;;;;;;465712;255;28167;-64
2021/04/29 01:37:02;;;;;;;8.47;7.43;;;9.30;99.90;;;;;;458714;255;28055;-65
2021/04/29 01:39:03;;;;;;;10.10;7.10;;;9.30;99.90;;;;;;455738;260;27923;-64
2021/04/29 01:41:05;;;;;;;11.33;8.63;;;9.30;99.90;;;;;;461771;256;27936;-65
2021/04/29 01:43:06;;;;;;;8.37;7.20;;;9.30;99.90;;;;;;455742;260;28107;-65
2021/04/29 01:45:07;;;;;;;11.10;8.13;;;9.30;99.90;;;;;;465712;255;27937;-64
2021/04/29 01:47:08;;;;;;;10.33;9.23;;;9.30;99.90;;;;;;458723;258;28070;-65
2021/04/29 01:49:10;;;;;;;9.57;7.73;;;9.40;99.90;;;;;;455737;260;27999;-65
2021/04/29 01:51:11;;;;;;;7.70;6.90;;;9.40;99.90;;;;;;465712;255;27697;-64
2021/04/29 01:53:12;;;;;;;10.03;8.10;;;9.30;99.90;;;;;;458720;258;27990;-65
2021/04/29 01:55:13;;;;;;;12.43;9.03;;;9.30;99.90;;;;;;455731;260;28560;-64
2021/04/29 01:57:15;;;;;;;14.80;8.07;;;9.30;99.90;;;;;;465730;252;28390;-65
2021/04/29 01:59:16;;;;;;;12.90;10.07;;;9.20;99.90;;;;;;458710;258;28312;-64
2021/04/29 02:01:17;;;;;;;8.93;7.33;;;9.20;99.90;;;;;;455724;260;27968;-64
2021/04/29 02:03:18;;;;;;;8.83;7.93;;;9.20;99.90;;;;;;465715;255;27697;-66
2021/04/29 02:05:20;;;;;;;10.63;8.17;;;9.30;99.90;;;;;;458724;258;28067;-64
2021/04/29 02:07:21;;;;;;;8.10;7.30;;;9.30;99.90;;;;;;455722;260;28117;-64
2021/04/29 02:09:22;;;;;;;10.97;8.67;;;9.30;99.90;;;;;;465694;252;27936;-64
2021/04/29 02:11:23;;;;;;;9.83;8.37;;;9.20;99.90;;;;;;458708;258;27589;-64
2021/04/29 02:13:25;;;;;;;9.20;7.90;;;9.20;99.90;;;;;;455737;260;28120;-65
2021/04/29 02:15:26;;;;;;;9.33;7.53;;;9.30;99.90;;;;;;461765;256;28056;-64
2021/04/29 02:17:28;;;;;;;8.20;7.00;;;9.30;99.90;;;;;;455729;260;27871;-64
2021/04/29 02:19:28;;;;;;;12.80;8.80;;;9.30;99.90;;;;;;465690;255;28174;-64
2021/04/29 02:21:30;;;;;;;8.20;7.40;;;9.30;99.90;;;;;;458713;258;27997;-64
2021/04/29 02:23:31;;;;;;;8.17;7.30;;;9.30;99.90;;;;;;455734;260;28497;-66
2021/04/29 02:25:32;;;;;;;10.00;8.10;;;9.30;99.90;;;;;;465701;255;28664;-65
2021/04/29 02:27:33;;;;;;;8.90;8.00;;;9.30;99.90;;;;;;458723;258;28445;-64
2021/04/29 02:29:35;;;;;;;12.00;7.83;;;9.30;99.90;;;;;;455736;260;28302;-64
2021/04/29 02:31:36;;;;;;;10.97;8.40;;;9.20;99.90;;;;;;461753;256;28420;-64
2021/04/29 02:33:37;;;;;;;14.63;9.13;;;9.20;99.90;;;;;;455742;260;28188;-66
2021/04/29 02:35:38;;;;;;;10.70;8.00;;;9.30;99.90;;;;;;465699;255;28027;-64
2021/04/29 02:37:40;;;;;;;7.80;7.00;;;9.20;99.90;;;;;;458716;258;27865;-66
2021/04/29 02:39:41;;;;;;;7.73;6.80;;;9.20;99.90;;;;;;455721;260;27987;-64
2021/04/29 02:41:42;;;;;;;8.80;7.10;;;9.20;99.90;;;;;;465703;255;27823;-65
2021/04/29 02:43:43;;;;;;;12.70;8.10;;;9.20;99.90;;;;;;458702;255;27998;-65
2021/04/29 02:45:45;;;;;;;8.27;7.43;;;9.20;99.90;;;;;;455737;260;27921;-64
2021/04/29 02:47:46;;;;;;;9.23;8.30;;;9.20;99.90;;;;;;461758;256;28091;-65
2021/04/29 02:49:47;;;;;;;12.57;10.10;;;9.20;99.90;;;;;;455719;260;28071;-64
2021/04/29 02:51:48;;;;;;;11.07;8.80;;;9.20;99.90;;;;;;465703;255;27953;-65
2021/04/29 02:53:50;;;;;;;7.43;6.73;;;9.20;99.90;;;;;;458710;258;28952;-67
2021/04/29 02:55:51;;;;;;;9.80;8.77;;;9.20;99.90;;;;;;455730;260;28433;-64
2021/04/29 02:57:52;;;;;;;8.97;7.80;;;9.20;99.90;;;;;;465714;255;28126;-65
2021/04/29 02:59:53;;;;;;;11.10;8.50;;;9.20;99.90;;;;;;458700;258;28448;-64
2021/04/29 03:01:55;;;;;;;10.07;8.53;;;9.20;99.90;;;;;;455728;260;28065;-65
2021/04/29 03:03:56;;;;;;;8.57;6.50;;;9.20;99.90;;;;;;461761;256;27972;-64
2021/04/29 03:05:57;;;;;;;6.90;6.10;;;9.20;99.90;;;;;;455717;260;28068;-65
2021/04/29 03:07:58;;;;;;;9.00;8.10;;;9.20;99.90;;;;;;465709;255;27966;-65
2021/04/29 03:10:00;;;;;;;8.63;7.73;;;9.20;99.90;;;;;;458718;258;28080;-64
2021/04/29 03:12:01;;;;;;;7.57;6.83;;;9.20;99.90;;;;;;455742;260;27937;-65
2021/04/29 03:14:02;;;;;;;15.20;10.33;;;9.20;99.90;;;;;;461751;256;27795;-64
2021/04/29 03:16:03;;;;;;;9.73;7.90;;;9.20;99.90;;;;;;455734;260;28063;-64
2021/04/29 03:18:05;;;;;;;8.13;6.90;;;9.20;99.90;;;;;;465697;251;28033;-66
2021/04/29 03:20:06;;;;;;;9.73;8.00;;;9.20;99.90;;;;;;458708;258;28047;-64
2021/04/29 03:22:07;;;;;;;7.97;7.17;;;9.20;99.90;;;;;;455729;260;27952;-64
2021/04/29 03:24:08;;;;;;;7.10;6.40;;;9.20;99.90;;;;;;465706;255;28322;-65
2021/04/29 03:26:10;;;;;;;7.33;6.50;;;9.20;99.90;;;;;;458702;258;28512;-64
2021/04/29 03:28:11;;;;;;;8.13;7.33;;;9.30;99.90;;;;;;455727;260;28452;-66
2021/04/29 03:30:12;;;;;;;8.30;6.73;;;9.30;99.90;;;;;;465698;255;28540;-64
2021/04/29 03:32:13;;;;;;;7.57;6.50;;;9.20;99.90;;;;;;458699;258;28540;-65
2021/04/29 03:34:15;;;;;;;6.40;5.80;;;9.20;99.90;;;;;;455715;257;28560;-64
2021/04/29 03:36:16;;;;;;;8.67;6.73;;;9.30;99.90;;;;;;465701;255;28104;-65
2021/04/29 03:38:17;;;;;;;7.93;7.17;;;9.20;99.90;;;;;;458707;258;28096;-66
2021/04/29 03:40:18;;;;;;;7.30;6.27;;;9.20;99.90;;;;;;455720;257;28056;-64
2021/04/29 03:42:20;;;;;;;9.00;6.90;;;9.20;99.90;;;;;;465695;255;27945;-65
2021/04/29 03:44:21;;;;;;;7.50;6.40;;;9.20;99.90;;;;;;458698;258;28110;-64
2021/04/29 03:46:22;;;;;;;7.10;6.40;;;9.20;99.90;;;;;;455736;260;27803;-65
2021/04/29 03:48:23;;;;;;;13.83;10.30;;;9.30;99.90;;;;;;465709;255;27968;-65
2021/04/29 03:50:25;;;;;;;15.00;11.37;;;9.30;99.90;;;;;;458697;258;27997;-64
2021/04/29 03:52:26;;;;;;;13.37;10.10;;;9.30;99.90;;;;;;455720;260;27975;-65
2021/04/29 03:54:27;;;;;;;14.57;12.00;;;9.30;99.90;;;;;;461768;256;28056;-64
2021/04/29 03:56:28;;;;;;;10.33;8.40;;;9.30;99.90;;;;;;455723;260;28437;-64
2021/04/29 03:58:30;;;;;;;15.93;12.10;;;9.30;99.90;;;;;;465694;255;28464;-65
2021/04/29 04:00:31;;;;;;;11.90;9.23;;;9.30;99.90;;;;;;458697;258;28429;-64
2021/04/29 04:02:32;;;;;;;10.50;9.30;;;9.30;99.90;;;;;;455740;260;27935;-65
2021/04/29 04:04:33;;;;;;;14.47;12.07;;;9.30;99.90;;;;;;461765;253;27816;-65
2021/04/29 04:06:35;;;;;;;12.40;10.43;;;9.30;99.90;;;;;;455748;260;27951;-64
2021/04/29 04:08:36;;;;;;;9.93;8.40;;;9.20;99.90;;;;;;465754;255;27933;-65
2021/04/29 04:10:37;;;;;;;25.47;14.70;;;9.20;99.90;;;;;;458721;259;28116;-64
2021/04/29 04:12:39;;;;;;;11.10;9.50;;;9.30;99.90;;;;;;455731;260;27968;-65
2021/04/29 04:14:40;;;;;;;12.03;10.20;;;9.30;99.90;;;;;;465688;255;28026;-64
2021/04/29 04:16:41;;;;;;;13.13;11.20;;;9.30;99.90;;;;;;458690;255;28316;-66
2021/04/29 04:18:42;;;;;;;16.73;11.13;;;9.30;99.90;;;;;;455731;260;28146;-64
2021/04/29 04:20:43;;;;;;;14.87;10.23;;;9.30;99.90;;;;;;461730;256;28516;-65
2021/04/29 04:22:45;;;;;;;13.73;10.70;;;9.30;99.90;;;;;;455715;260;28079;-65
2021/04/29 04:24:46;;;;;;;13.00;10.53;;;9.30;99.90;;;;;;465694;255;28143;-64
2021/04/29 04:26:47;;;;;;;12.67;9.90;;;9.30;99.90;;;;;;458705;258;28104;-64
2021/04/29 04:28:48;;;;;;;14.63;11.70;;;9.30;99.90;;;;;;455717;256;28059;-64
2021/04/29 04:30:50;;;;;;;18.73;12.10;;;9.30;99.90;;;;;;465697;255;27954;-65
2021/04/29 04:32:51;;;;;;;12.57;10.33;;;9.30;99.90;;;;;;458690;258;27966;-66
2021/04/29 04:34:52;;;;;;;13.77;10.53;;;9.30;99.90;;;;;;455722;260;28674;-64
2021/04/29 04:36:53;;;;;;;15.07;12.30;;;9.30;99.90;;;;;;461764;256;28199;-64
2021/04/29 04:38:55;;;;;;;14.77;12.33;;;9.30;99.90;;;;;;455747;260;28408;-64
2021/04/29 04:40:56;;;;;;;12.90;10.30;;;9.30;99.90;;;;;;465676;255;28067;-64
2021/04/29 04:42:57;;;;;;;15.90;11.50;;;9.30;99.90;;;;;;458707;258;28063;-65
2021/04/29 04:44:58;;;;;;;13.50;10.07;;;9.40;99.90;;;;;;455728;260;28164;-64
2021/04/29 04:47:00;;;;;;;12.63;10.17;;;9.40;99.90;;;;;;461734;253;28199;-65
2021/04/29 04:49:01;;;;;;;13.20;10.33;;;9.30;99.90;;;;;;455721;260;27982;-64
2021/04/29 04:51:02;;;;;;;10.90;9.30;;;9.30;99.90;;;;;;465689;255;27946;-64
2021/04/29 04:53:04;;;;;;;15.70;12.93;;;9.30;99.90;;;;;;458688;258;28158;-66
2021/04/29 04:55:05;;;;;;;11.70;10.07;;;9.30;99.90;;;;;;455708;260;28634;-64
2021/04/29 04:57:09;;;;;;;12.90;10.53;;;9.30;99.90;;;;;;465714;255;28679;-65
2021/04/29 04:59:07;;;;;;;13.30;9.80;;;9.20;99.90;;;;;;458695;258;27944;-64
2021/04/29 05:01:09;;;;;;;15.00;9.40;;;9.20;99.90;;;;;;455743;260;28034;-64
2021/04/29 05:03:10;;;;;;;16.67;12.50;;;9.30;99.90;;;;;;461776;256;28075;-65
2021/04/29 05:05:11;;;;;;;13.00;10.13;;;9.30;99.90;;;;;;455749;260;27876;-64
2021/04/29 05:07:12;;;;;;;11.47;9.60;;;9.20;99.90;;;;;;465720;255;28020;-65
2021/04/29 05:09:14;;;;;;;14.47;11.87;;;9.30;99.90;;;;;;458730;258;27856;-64
2021/04/29 05:11:15;;;;;;;13.57;10.83;;;9.30;99.90;;;;;;455733;260;28183;-65
2021/04/29 05:13:16;;;;;;;12.43;8.97;;;9.30;99.90;;;;;;465724;255;28280;-68
2021/04/29 05:15:17;;;;;;;9.23;7.70;;;9.40;99.90;;;;;;458716;258;28608;-64
2021/04/29 05:17:19;;;;;;;11.30;10.00;;;9.40;99.90;;;;;;455747;260;28424;-65
2021/04/29 05:19:20;;;;;;;10.60;7.70;;;9.40;99.90;;;;;;465711;255;27965;-64
2021/04/29 05:21:21;;;;;;;12.57;9.80;;;9.50;99.90;;;;;;458709;258;27981;-64
2021/04/29 05:23:22;;;;;;;16.63;11.10;;;9.40;99.90;;;;;;455738;260;28036;-64
2021/04/29 05:25:24;;;;;;;16.47;10.57;;;9.30;99.90;;;;;;465721;255;28024;-65
2021/04/29 05:27:25;;;;;;;17.33;11.87;;;9.40;99.90;;;;;;458709;258;27983;-65
2021/04/29 05:29:26;;;;;;;13.37;10.07;;;9.40;99.90;;;;;;455748;260;28060;-65
2021/04/29 05:31:27;;;;;;;14.20;10.20;;;9.40;99.90;;;;;;465706;255;28175;-65
2021/04/29 05:33:29;;;;;;;14.17;9.30;;;9.50;99.90;;;;;;458700;258;28631;-65
2021/04/29 05:35:30;;;;;;;16.10;10.17;;;9.50;99.90;;;;;;455701;260;28628;-65
2021/04/29 05:37:31;;;;;;;14.37;9.83;;;9.50;99.90;;;;;;465673;255;28600;-64
2021/04/29 05:39:32;;;;;;;13.63;10.70;;;9.40;99.90;;;;;;458697;258;28107;-64
2021/04/29 05:41:34;;;;;;;12.03;9.67;;;9.30;99.90;;;;;;455718;260;28412;-65
2021/04/29 05:43:35;;;;;;;11.83;9.67;;;9.30;99.90;;;;;;465720;255;27695;-64
2021/04/29 05:45:36;;;;;;;11.33;9.83;;;9.30;99.90;;;;;;458710;258;27874;-65
2021/04/29 05:47:37;;;;;;;15.83;11.53;;;9.40;99.90;;;;;;455722;260;27999;-64
2021/04/29 05:49:39;;;;;;;12.10;9.50;;;9.30;99.90;;;;;;465737;255;27971;-65
2021/04/29 05:51:40;;;;;;;12.67;8.83;;;9.30;99.90;;;;;;458711;258;28059;-64
2021/04/29 05:53:41;;;;;;;11.83;9.50;;;9.30;99.90;;;;;;455732;260;28053;-64
2021/04/29 05:55:42;;;;;;;15.90;12.13;;;9.40;99.90;;;;;;465705;255;28457;-65
2021/04/29 05:57:44;;;;;;;15.00;11.03;;;9.40;99.90;;;;;;458704;258;28437;-65
2021/04/29 05:59:45;;;;;;;13.30;11.00;;;9.40;99.90;;;;;;455703;260;28634;-67
2021/04/29 06:01:46;;;;;;;10.60;8.90;;;9.40;99.90;;;;;;461751;256;27945;-64
2021/04/29 06:03:48;;;;;;;14.90;11.73;;;9.40;99.90;;;;;;455730;256;27953;-64
2021/04/29 06:05:49;;;;;;;14.40;11.90;;;9.40;99.90;;;;;;465693;255;28024;-64
2021/04/29 06:07:50;;;;;;;13.10;10.93;;;9.40;99.90;;;;;;458705;258;28108;-65
2021/04/29 06:09:51;;;;;;;11.67;9.07;;;9.50;99.90;;;;;;455737;260;28072;-64
2021/04/29 06:11:52;;;;;;;12.13;10.03;;;9.50;99.90;;;;;;465709;255;28014;-65
2021/04/29 06:13:54;;;;;;;11.87;8.80;;;9.50;99.90;;;;;;458702;258;27971;-64
2021/04/29 06:15:55;;;;;;;9.60;8.60;;;9.50;99.90;;;;;;455718;260;28558;-65
2021/04/29 06:17:56;;;;;;;14.47;11.67;;;9.50;99.90;;;;;;461763;256;28402;-65
2021/04/29 06:19:57;;;;;;;12.13;10.10;;;9.60;99.90;;;;;;455732;260;28403;-64
2021/04/29 06:21:59;;;;;;;10.60;8.90;;;9.60;99.90;;;;;;465697;255;28019;-65
2021/04/29 06:24:08;;;;;;;14.00;9.93;;;9.60;99.90;;;;;;458717;258;28091;-65
2021/04/29 06:26:09;;;;;;;13.47;8.57;;;9.70;99.90;;;;;;455702;256;28152;-65
2021/04/29 06:28:10;;;;;;;12.53;8.73;;;9.60;99.90;;;;;;465721;255;28149;-66
2021/04/29 06:30:12;;;;;;;10.40;8.43;;;9.70;99.90;;;;;;458700;258;28878;-65
2021/04/29 06:32:13;;;;;;;13.20;11.00;;;9.90;99.90;;;;;;455730;260;28638;-64
2021/04/29 06:34:14;;;;;;;10.17;8.20;;;9.80;99.90;;;;;;465715;255;28534;-64
2021/04/29 06:36:15;;;;;;;15.13;10.90;;;9.80;99.90;;;;;;458706;258;28143;-64
2021/04/29 06:38:17;;;;;;;11.07;9.47;;;9.90;99.90;;;;;;455733;260;27940;-66
2021/04/29 06:40:18;;;;;;;13.63;10.20;;;9.90;99.90;;;;;;465694;255;28302;-65
2021/04/29 06:42:19;;;;;;;12.47;11.10;;;9.90;99.90;;;;;;458710;258;27966;-64
2021/04/29 06:44:20;;;;;;;15.30;11.33;;;9.80;99.90;;;;;;455751;260;28444;-64
2021/04/29 06:46:22;;;;;;;8.77;7.87;;;9.90;99.90;;;;;;465700;255;28193;-64
2021/04/29 06:48:23;;;;;;;15.00;10.70;;;9.90;99.90;;;;;;458714;258;27845;-67
2021/04/29 06:50:24;;;;;;;12.60;8.60;;;10.00;99.90;;;;;;455740;260;28517;-64
2021/04/29 06:52:25;;;;;;;10.77;9.67;;;10.00;99.90;;;;;;465707;255;28731;-64
2021/04/29 06:54:27;;;;;;;14.77;10.37;;;10.00;99.90;;;;;;458713;258;28643;-64
2021/04/29 06:56:28;;;;;;;10.03;9.03;;;10.00;99.90;;;;;;455736;260;28287;-65
2021/04/29 06:58:31;;;;;;;13.37;10.03;;;10.00;99.90;;;;;;465709;255;28044;-66
2021/04/29 07:00:32;;;;;;;14.70;8.93;;;10.10;99.90;;;;;;458677;258;28402;-65
2021/04/29 07:02:32;;;;;;;11.23;9.10;;;10.30;99.90;;;;;;455734;260;28093;-65
2021/04/29 07:04:33;;;;;;;10.77;8.63;;;10.40;99.90;;;;;;465710;255;28177;-64
2021/04/29 07:06:35;;;;;;;9.60;8.60;;;10.40;99.90;;;;;;458712;255;28280;-65
2021/04/29 07:08:36;;;;;;;13.63;11.47;;;10.40;99.90;;;;;;455726;260;28910;-66
2021/04/29 07:10:37;;;;;;;13.50;11.50;;;10.40;99.90;;;;;;465700;255;28843;-64
2021/04/29 07:12:38;;;;;;;11.43;9.87;;;10.30;99.90;;;;;;458704;258;28647;-65
2021/04/29 07:14:39;;;;;;;10.57;8.90;;;10.20;99.90;;;;;;455734;260;28201;-64
2021/04/29 07:16:41;;;;;;;13.70;10.70;;;10.20;99.90;;;;;;461765;256;28216;-65
2021/04/29 07:18:42;;;;;;;10.73;9.63;;;10.20;99.90;;;;;;455715;256;28217;-66
2021/04/29 07:20:43;;;;;;;13.30;9.23;;;10.10;99.90;;;;;;465673;255;28246;-65
2021/04/29 07:22:44;;;;;;;14.63;11.50;;;10.00;99.90;;;;;;458708;258;28386;-65
2021/04/29 07:24:46;;;;;;;12.47;10.50;;;10.00;99.90;;;;;;455717;256;28621;-65
2021/04/29 07:26:47;;;;;;;10.77;9.50;;;9.90;99.90;;;;;;465687;255;28563;-65
2021/04/29 07:28:48;;;;;;;12.67;11.37;;;9.90;99.90;;;;;;458705;258;28239;-65
2021/04/29 07:30:49;;;;;;;10.43;9.33;;;9.80;99.90;;;;;;455730;260;28047;-64
2021/04/29 07:32:51;;;;;;;10.30;8.93;;;9.90;99.90;;;;;;465699;255;27906;-65
2021/04/29 07:34:52;;;;;;;14.63;11.67;;;10.10;99.90;;;;;;458709;258;28207;-64
2021/04/29 07:36:53;;;;;;;11.53;9.87;;;10.10;99.90;;;;;;455723;260;28291;-65
2021/04/29 07:38:54;;;;;;;10.90;9.80;;;10.20;99.90;;;;;;465702;255;28185;-64
2021/04/29 07:40:56;;;;;;;10.40;9.30;;;10.30;99.90;;;;;;458689;258;28291;-64
2021/04/29 07:42:57;;;;;;;14.20;12.10;;;10.40;99.90;;;;;;455706;260;28659;-65
2021/04/29 07:44:58;;;;;;;10.97;9.80;;;10.50;99.90;;;;;;465698;255;28606;-65
2021/04/29 07:47:00;;;;;;;10.17;9.17;;;10.70;99.90;;;;;;458703;258;28213;-64
2021/04/29 07:49:01;;;;;;;9.40;8.40;;;10.90;99.90;;;;;;455712;260;28438;-65
2021/04/29 07:51:02;;;;;;;12.43;11.20;;;11.00;99.90;;;;;;461752;256;28277;-65
2021/04/29 07:53:03;;;;;;;12.43;11.13;;;11.20;99.90;;;;;;455723;260;28074;-65
2021/04/29 07:55:04;;;;;;;13.40;11.40;;;11.30;99.90;;;;;;465688;255;28370;-66
2021/04/29 07:57:06;;;;;;;15.53;13.27;;;11.50;99.90;;;;;;458699;258;28669;-65
2021/04/29 07:59:07;;;;;;;16.23;12.50;;;11.60;99.90;;;;;;455719;260;29490;-65
2021/04/29 08:01:10;;;;;;;14.67;12.87;;;;;;;;;;465681;255;28873;-65
2021/04/29 08:03:11;;;;;;;13.93;11.10;;;11.60;99.90;;;;;;458686;259;26419;-66
2021/04/29 08:05:12;;;;;;;16.50;11.70;;;11.80;99.90;;;;;;455729;260;28195;-64
2021/04/29 08:07:13;;;;;;;13.27;11.73;;;11.80;99.90;;;;;;461745;256;28889;-64
2021/04/29 08:09:14;;;;;;;19.40;14.80;;;11.90;99.90;;;;;;455729;260;28639;-66
2021/04/29 08:11:16;;;;;;;16.67;13.37;;;11.60;99.90;;;;;;465689;255;28252;-68
2021/04/29 08:13:17;;;;;;;13.67;12.13;;;11.70;99.90;;;;;;458691;258;28213;-66
2021/04/29 08:15:18;;;;;;;16.87;13.17;;;11.70;99.90;;;;;;455727;260;28428;-65
2021/04/29 08:17:19;;;;;;;16.70;13.80;;;11.60;99.90;;;;;;465734;255;28278;-65
2021/04/29 08:19:21;;;;;;;17.30;13.77;;;11.40;99.90;;;;;;458678;258;28283;-65
2021/04/29 08:21:22;;;;;;;15.90;13.23;;;11.40;99.90;;;;;;455705;260;28718;-65
2021/04/29 08:23:23;;;;;;;19.37;13.80;;;11.30;99.90;;;;;;465698;255;28997;-65
2021/04/29 08:25:26;;;;;;;16.57;12.77;;;;;;;;;;458702;255;28273;-64
2021/04/29 08:27:27;;;;;;;16.60;12.27;;;11.30;99.90;;;;;;455331;261;26444;-64
2021/04/29 08:29:28;;;;;;;17.57;15.23;;;11.30;99.90;;;;;;465687;255;29053;-66
2021/04/29 08:31:29;;;;;;;21.47;15.00;;;11.40;99.90;;;;;;458700;258;28676;-65
2021/04/29 08:33:31;;;;;;;16.73;12.80;;;11.40;99.90;;;;;;455715;260;28342;-65
2021/04/29 08:35:32;;;;;;;15.40;13.80;;;11.60;99.90;;;;;;465692;255;28160;-65
2021/04/29 08:37:33;;;;;;;16.43;13.50;;;11.70;99.90;;;;;;458692;259;28203;-65
2021/04/29 08:39:34;;;;;;;15.50;12.03;;;11.70;99.90;;;;;;455746;256;28223;-67
2021/04/29 08:41:36;;;;;;;19.63;14.30;;;11.80;99.90;;;;;;465670;252;28538;-65
2021/04/29 08:43:37;;;;;;;13.90;11.23;;;11.70;99.90;;;;;;458704;258;28932;-66
2021/04/29 08:45:38;;;;;;;17.03;12.33;;;11.80;99.90;;;;;;455726;260;29022;-64
2021/04/29 08:47:39;;;;;;;17.40;12.90;;;11.80;99.90;;;;;;465703;255;28290;-65
2021/04/29 08:49:41;;;;;;;15.77;11.27;;;11.70;99.90;;;;;;458705;255;28517;-67
2021/04/29 08:51:43;;;;;;;13.40;10.40;;;11.70;99.90;;;;;;455729;260;28176;-65
2021/04/29 08:53:45;;;;;;;14.80;11.67;;;11.70;99.90;;;;;;465703;255;28163;-65
2021/04/29 08:55:44;;;;;;;11.90;10.60;;;11.70;99.90;;;;;;458682;255;28530;-65
2021/04/29 08:57:46;;;;;;;12.70;11.40;;;11.90;99.90;;;;;;455719;260;28813;-64
2021/04/29 08:59:47;;;;;;;15.10;11.87;;;11.90;99.90;;;;;;461750;256;29232;-65
2021/04/29 09:01:48;;;;;;;16.73;11.70;;;11.90;99.90;;;;;;455700;260;28332;-64
2021/04/29 09:03:49;;;;;;;18.33;12.17;;;11.80;99.90;;;;;;465676;252;28302;-65
2021/04/29 09:05:51;;;;;;;14.40;11.27;;;12.00;99.90;;;;;;458698;259;28316;-65
2021/04/29 09:07:52;;;;;;;14.47;10.80;;;12.00;99.90;;;;;;455715;260;28208;-64
2021/04/29 09:09:53;;;;;;;14.97;11.47;;;12.10;99.90;;;;;;465685;252;28164;-66
2021/04/29 09:11:55;;;;;;;14.70;11.20;;;12.10;99.90;;;;;;458688;258;29019;-65
2021/04/29 09:13:56;;;;;;;17.80;13.57;;;12.30;99.90;;;;;;455716;260;29000;-65
2021/04/29 09:15:57;;;;;;;14.20;11.90;;;12.20;99.90;;;;;;461727;256;28900;-64
2021/04/29 09:17:58;;;;;;;15.43;10.90;;;12.20;99.90;;;;;;455704;260;28429;-65
2021/04/29 09:20:00;;;;;;;15.90;11.50;;;12.30;99.90;;;;;;465679;253;28649;-66
2021/04/29 09:22:01;;;;;;;13.80;10.53;;;12.30;99.90;;;;;;458688;259;28653;-65
2021/04/29 09:24:04;;;;;;;16.13;11.70;;;12.20;99.90;;;;;;455704;260;28437;-65
2021/04/29 09:26:04;;;;;;;13.43;11.63;;;12.30;99.90;;;;;;465671;255;29445;-64
2021/04/29 09:28:05;;;;;;;12.40;10.90;;;12.30;99.90;;;;;;458670;255;29030;-64
2021/04/29 09:30:06;;;;;;;15.63;11.50;;;12.10;99.90;;;;;;455708;260;28656;-67
2021/04/29 09:32:07;;;;;;;15.33;11.37;;;12.00;99.90;;;;;;461758;256;28289;-66
2021/04/29 09:34:08;;;;;;;12.90;10.40;;;12.10;99.90;;;;;;455723;260;28525;-65
2021/04/29 09:36:10;;;;;;;15.10;12.60;;;12.10;99.90;;;;;;465692;255;28406;-66
2021/04/29 09:38:12;;;;;;;12.00;10.70;;;12.20;99.90;;;;;;458681;255;28443;-65
2021/04/29 09:40:12;;;;;;;13.80;11.20;;;12.30;99.90;;;;;;455694;260;28687;-66
2021/04/29 09:42:13;;;;;;;12.03;10.70;;;12.10;99.90;;;;;;465687;255;28729;-66
2021/04/29 09:44:15;;;;;;;14.37;10.30;;;12.00;99.90;;;;;;458727;257;28396;-65
2021/04/29 09:46:16;;;;;;;11.73;10.20;;;12.10;99.90;;;;;;455743;260;28591;-65
2021/04/29 09:48:21;;;;;;;15.10;10.97;;;12.10;99.90;;;;;;465718;255;28174;-64
2021/04/29 09:50:18;;;;;;;14.70;10.37;;;12.00;99.90;;;;;;458711;255;28599;-66
2021/04/29 09:52:20;;;;;;;12.40;9.53;;;11.80;99.90;;;;;;455728;260;28263;-65
2021/04/29 09:54:21;;;;;;;15.10;10.70;;;12.00;99.90;;;;;;465708;255;28831;-65
2021/04/29 09:56:22;;;;;;;13.93;10.83;;;12.10;99.90;;;;;;458727;256;28751;-65
2021/04/29 09:58:26;;;;;;;12.37;9.87;;;12.20;99.90;;;;;;455721;260;28894;-65
2021/04/29 10:00:25;;;;;;;13.13;9.93;;;12.40;99.90;;;;;;465708;255;28270;-64
2021/04/29 10:02:26;;;;;;;12.50;9.77;;;12.50;99.90;;;;;;458698;258;28495;-64
2021/04/29 10:04:27;;;;;;;15.70;10.00;;;12.50;99.90;;;;;;455737;260;28199;-65
2021/04/29 10:06:28;;;;;;;13.67;10.07;;;12.50;99.90;;;;;;465692;251;28321;-65
2021/04/29 10:08:32;;;;;;;10.77;9.63;;;;;;;;;;458703;258;28314;-67
2021/04/29 10:10:32;;;;;;;12.43;9.53;;;12.60;99.90;;;;;;463296;255;26442;-65
2021/04/29 10:12:35;;;;;;;11.00;8.83;;;;;;;;;;465706;255;28399;-65
2021/04/29 10:14:36;;;;;;;10.30;9.10;;;12.70;99.90;;;;;;458716;259;26905;-65
2021/04/29 10:16:37;;;;;;;12.00;10.40;;;12.60;99.90;;;;;;455723;260;29281;-65
2021/04/29 10:18:38;;;;;;;11.83;9.47;;;12.50;99.90;;;;;;465702;255;28531;-65
2021/04/29 10:20:40;;;;;;;10.50;9.07;;;12.70;99.90;;;;;;458717;258;28329;-68
2021/04/29 10:22:41;;;;;;;11.40;9.27;;;12.90;99.90;;;;;;455725;260;28648;-65
2021/04/29 10:24:42;;;;;;;10.97;8.77;;;13.00;99.90;;;;;;465687;255;28398;-65
2021/04/29 10:26:43;;;;;;;11.27;9.17;;;13.10;99.90;;;;;;458693;254;28956;-66